aviador You're here:

KQBF Decoded Metar

in
Report Time2018-05-26 14:56:00
UTC Time2018-05-26 15:34:36
Flight Rules vfr VFR
WindCalm
Visibility9999 m
Phenomena:N/A
Clouds:N/A
Expected CloudBase > 6,400 ft AGL from Temp-Dew spread
CeilingNone
Temp31°C
Dew Point15°C (38% RH)
Heat Index30.6°C
QNH1009 hPa
Raw Report
METAR KQBF 261456Z AUTO 00000KT 9999 CLR 31/15 A2980 RMK AO2 SLPNO
WND DATA ESTMD T03060147 57023=

Extra information for KQBF:More info

Social comments